createdAt,value
2019-04-03T00:01:27.576Z,13.07
2019-04-03T00:04:00.211Z,12.70
2019-04-03T00:06:33.723Z,11.67
2019-04-03T00:09:09.020Z,11.70
2019-04-03T00:11:43.116Z,12.33
2019-04-03T00:14:15.295Z,12.27
2019-04-03T00:16:47.856Z,12.37
2019-04-03T00:19:20.374Z,12.13
2019-04-03T00:21:52.935Z,12.23
2019-04-03T00:24:25.554Z,12.83
2019-04-03T00:26:58.700Z,11.83
2019-04-03T00:29:31.314Z,11.73
2019-04-03T00:32:03.802Z,12.13
2019-04-03T00:34:36.300Z,12.83
2019-04-03T00:37:08.880Z,12.90
2019-04-03T00:39:41.520Z,13.40
2019-04-03T00:42:14.055Z,13.13
2019-04-03T00:44:46.286Z,13.73
2019-04-03T00:47:19.731Z,12.10
2019-04-03T00:49:52.341Z,12.87
2019-04-03T00:52:25.876Z,12.07
2019-04-03T00:54:59.375Z,12.20
2019-04-03T00:57:32.336Z,12.20
2019-04-03T01:00:10.630Z,12.17
2019-04-03T01:02:43.965Z,12.17
2019-04-03T01:05:16.493Z,12.27
2019-04-03T01:07:49.037Z,12.00
2019-04-03T01:10:21.370Z,12.00
2019-04-03T01:12:53.872Z,11.83
2019-04-03T01:15:26.996Z,12.73
2019-04-03T01:17:59.564Z,12.43
2019-04-03T01:20:32.114Z,12.47
2019-04-03T01:23:06.909Z,12.37
2019-04-03T01:25:39.640Z,12.10
2019-04-03T01:28:12.333Z,12.80
2019-04-03T01:30:48.112Z,12.40
2019-04-03T01:33:20.548Z,12.33
2019-04-03T01:35:53.493Z,12.80
2019-04-03T01:38:26.260Z,13.40
2019-04-03T01:40:58.877Z,12.97
2019-04-03T01:43:31.348Z,12.90
2019-04-03T01:46:03.982Z,12.87
2019-04-03T01:48:36.434Z,12.60
2019-04-03T01:51:08.610Z,13.83
2019-04-03T01:53:41.324Z,13.20
2019-04-03T01:56:13.933Z,11.73
2019-04-03T01:58:46.378Z,12.63
2019-04-03T02:01:19.124Z,12.73
2019-04-03T02:03:51.707Z,12.27
2019-04-03T02:06:23.878Z,12.70
2019-04-03T02:08:56.437Z,12.53
2019-04-03T02:11:29.083Z,12.57
2019-04-03T02:14:01.647Z,12.60
2019-04-03T02:16:35.540Z,12.93
2019-04-03T02:19:07.748Z,13.33
2019-04-03T02:21:40.268Z,12.90
2019-04-03T02:24:12.709Z,13.00
2019-04-03T02:26:45.232Z,12.67
2019-04-03T02:29:17.671Z,12.73
2019-04-03T02:31:52.924Z,12.00
2019-04-03T02:34:24.414Z,12.67
2019-04-03T02:36:56.971Z,12.77
2019-04-03T02:39:29.552Z,12.83
2019-04-03T02:42:02.235Z,12.97
2019-04-03T02:44:34.831Z,12.30
2019-04-03T02:47:07.373Z,12.80
2019-04-03T02:49:42.710Z,12.97
2019-04-03T02:52:14.161Z,13.43
2019-04-03T02:54:48.172Z,13.27
2019-04-03T02:57:20.834Z,13.40
2019-04-03T02:59:57.691Z,13.50
2019-04-03T03:02:27.719Z,13.70
2019-04-03T03:05:00.241Z,12.83
2019-04-03T03:07:36.334Z,13.73
2019-04-03T03:10:09.649Z,13.50
2019-04-03T03:12:43.461Z,13.27
2019-04-03T03:15:16.616Z,13.67
2019-04-03T03:17:50.217Z,13.50
2019-04-03T03:20:25.462Z,12.97
2019-04-03T03:22:59.510Z,13.60
2019-04-03T03:25:33.679Z,13.67
2019-04-03T03:28:06.897Z,13.60
2019-04-03T03:30:46.768Z,13.57
2019-04-03T03:33:32.414Z,13.67
2019-04-03T03:35:50.820Z,13.27
2019-04-03T03:38:27.281Z,13.50
2019-04-03T03:40:59.215Z,14.90
2019-04-03T03:43:37.049Z,17.30
2019-04-03T03:46:06.853Z,16.30
2019-04-03T03:48:42.074Z,15.90
2019-04-03T03:51:15.887Z,15.73
2019-04-03T03:53:50.423Z,15.97
2019-04-03T03:56:23.504Z,14.50
2019-04-03T03:58:55.821Z,13.97
2019-04-03T04:01:31.008Z,13.67
2019-04-03T04:04:03.214Z,14.20
2019-04-03T04:06:36.641Z,13.83
2019-04-03T04:09:09.583Z,13.87
2019-04-03T04:11:42.288Z,14.13
2019-04-03T04:14:16.238Z,14.73
2019-04-03T04:16:49.194Z,13.57
2019-04-03T04:19:22.979Z,14.40
2019-04-03T04:21:56.184Z,15.07
2019-04-03T04:24:28.853Z,13.73
2019-04-03T04:27:03.179Z,14.77
2019-04-03T04:29:35.949Z,15.23
2019-04-03T04:32:08.461Z,15.67
2019-04-03T04:34:41.035Z,20.43
2019-04-03T04:37:13.643Z,24.33
2019-04-03T04:39:46.095Z,21.73
2019-04-03T04:42:18.988Z,23.00
2019-04-03T04:44:51.323Z,21.40
2019-04-03T04:47:23.853Z,17.50
2019-04-03T04:49:56.406Z,18.57
2019-04-03T04:52:30.051Z,16.27
2019-04-03T04:55:02.961Z,17.70
2019-04-03T04:57:35.598Z,17.93
2019-04-03T05:00:09.262Z,19.80
2019-04-03T05:02:41.509Z,34.73
2019-04-03T05:05:14.063Z,26.60
2019-04-03T05:07:46.674Z,18.50
2019-04-03T05:10:19.248Z,17.00
2019-04-03T05:12:51.721Z,17.37
2019-04-03T05:15:24.115Z,16.27
2019-04-03T05:17:57.699Z,16.67
2019-04-03T05:20:31.282Z,15.70
2019-04-03T05:23:03.883Z,16.17
2019-04-03T05:25:37.448Z,16.67
2019-04-03T05:28:09.938Z,16.67
2019-04-03T05:30:42.422Z,17.17
2019-04-03T05:33:14.681Z,15.83
2019-04-03T05:35:47.243Z,15.77
2019-04-03T05:38:21.703Z,15.00
2019-04-03T05:40:54.698Z,15.80
2019-04-03T05:43:30.387Z,16.13
2019-04-03T05:46:02.309Z,15.93
2019-04-03T05:48:35.024Z,16.93
2019-04-03T05:51:07.480Z,16.13
2019-04-03T05:53:40.180Z,16.30
2019-04-03T05:56:12.753Z,15.47
2019-04-03T05:58:55.586Z,15.87
2019-04-03T06:01:20.371Z,15.87
2019-04-03T06:03:53.245Z,16.17
2019-04-03T06:06:26.060Z,17.00
2019-04-03T06:08:58.646Z,17.03
2019-04-03T06:11:31.064Z,16.53
2019-04-03T06:14:03.317Z,16.67
2019-04-03T06:16:35.877Z,16.07
2019-04-03T06:19:08.209Z,16.93
2019-04-03T06:21:40.868Z,16.43
2019-04-03T06:24:17.783Z,15.63
2019-04-03T06:27:01.477Z,16.67
2019-04-03T06:32:47.012Z,16.37
2019-04-03T06:35:20.112Z,15.93
2019-04-03T06:37:54.393Z,17.07
2019-04-03T06:40:28.327Z,17.23
2019-04-03T06:43:07.785Z,16.80
2019-04-03T06:45:56.878Z,14.50
2019-04-03T06:48:25.500Z,17.70
2019-04-03T06:50:58.223Z,15.70
2019-04-03T06:53:36.256Z,15.93
2019-04-03T06:56:30.590Z,17.77
2019-04-03T06:59:18.357Z,16.70
2019-04-03T07:01:54.869Z,16.23
2019-04-03T07:04:34.005Z,16.50
2019-04-03T07:07:13.579Z,16.63
2019-04-03T07:09:58.816Z,17.47
2019-04-03T07:12:38.834Z,16.53
2019-04-03T07:15:59.578Z,17.27
2019-04-03T07:18:24.090Z,16.47
2019-04-03T07:21:20.713Z,16.63
2019-04-03T07:24:14.422Z,16.87
2019-04-03T07:26:53.173Z,16.20
2019-04-03T07:29:31.801Z,15.40
2019-04-03T07:32:28.588Z,16.20
2019-04-03T07:42:24.576Z,16.10
2019-04-03T07:44:57.970Z,16.43
2019-04-03T07:50:36.979Z,15.13
2019-04-03T10:54:09.221Z,14.50
2019-04-03T11:25:25.141Z,14.20
2019-04-03T12:40:32.756Z,11.40
2019-04-03T12:43:51.311Z,13.83
2019-04-03T12:46:47.953Z,13.23
2019-04-03T12:49:33.763Z,14.10
2019-04-03T12:52:43.233Z,9.90
2019-04-03T12:59:30.301Z,13.67
2019-04-03T13:05:24.265Z,14.23
2019-04-03T13:08:24.074Z,12.93
2019-04-03T13:11:06.189Z,13.03
2019-04-03T13:13:47.372Z,14.53
2019-04-03T13:16:41.790Z,12.77
2019-04-03T13:43:53.177Z,13.93
2019-04-03T13:47:09.260Z,14.50
2019-04-03T13:56:53.836Z,14.63
2019-04-03T14:07:02.519Z,14.93
2019-04-03T14:17:05.467Z,13.27
2019-04-03T14:20:36.071Z,13.43
2019-04-03T14:23:10.350Z,14.63
2019-04-03T14:29:40.582Z,13.87
2019-04-03T14:32:55.278Z,13.27
2019-04-03T14:36:05.172Z,13.57
2019-04-03T14:39:02.396Z,13.73
2019-04-03T14:45:21.062Z,14.20
2019-04-03T14:48:17.280Z,14.23
2019-04-03T14:54:19.845Z,13.63
2019-04-03T14:57:11.116Z,14.27
2019-04-03T14:59:48.824Z,13.73
2019-04-03T15:05:48.033Z,14.30
2019-04-03T15:11:46.008Z,13.87
2019-04-03T15:14:29.482Z,13.07
2019-04-03T15:17:11.588Z,13.30
2019-04-03T15:23:26.059Z,14.30
2019-04-03T15:26:14.235Z,15.03
2019-04-03T15:29:05.432Z,15.60
2019-04-03T15:34:55.339Z,13.47
2019-04-03T15:37:53.649Z,14.43
2019-04-03T15:40:43.718Z,14.17
2019-04-03T15:43:21.610Z,14.90
2019-04-03T15:46:12.378Z,14.80
2019-04-03T15:48:53.457Z,16.30
2019-04-03T15:51:41.966Z,15.13
2019-04-03T15:54:25.852Z,14.97
2019-04-03T16:06:49.856Z,14.83
2019-04-03T16:09:42.574Z,16.00
2019-04-03T16:19:32.597Z,15.00
2019-04-03T16:39:07.054Z,14.60
2019-04-03T16:41:54.813Z,14.63
2019-04-03T16:44:48.096Z,14.77
2019-04-03T16:47:51.756Z,14.73
2019-04-03T16:57:47.503Z,18.17
